createdAt,value
2022-10-14T00:01:20.027Z,98470.88
2022-10-14T00:03:48.204Z,98470.28
2022-10-14T00:06:23.825Z,98473.66
2022-10-14T00:08:51.715Z,98467.75
2022-10-14T00:11:24.922Z,98473.47
2022-10-14T00:13:55.605Z,98473.25
2022-10-14T00:16:28.496Z,98470.72
2022-10-14T00:18:57.081Z,98468.84
2022-10-14T00:21:26.203Z,98467.41
2022-10-14T00:23:54.385Z,98468.19
2022-10-14T00:26:28.826Z,98462.16
2022-10-14T00:28:56.830Z,98466.81
2022-10-14T00:31:27.393Z,98460.28
2022-10-14T00:33:55.000Z,98467.41
2022-10-14T00:36:24.358Z,98459.47
2022-10-14T00:38:53.172Z,98458.84
2022-10-14T00:41:23.964Z,98452.75
2022-10-14T00:44:06.832Z,98454.31
2022-10-14T00:46:39.662Z,98447.31
2022-10-14T00:49:12.744Z,98451.59
2022-10-14T00:51:41.426Z,98449.16
2022-10-14T00:54:09.316Z,98450.41
2022-10-14T00:56:37.376Z,98444.66
2022-10-14T00:59:08.505Z,98444.94
2022-10-14T01:01:35.905Z,98458.22
2022-10-14T01:04:03.234Z,98456.53
2022-10-14T01:06:42.800Z,98459.91
2022-10-14T01:09:28.972Z,98466.59
2022-10-14T01:12:30.059Z,98464.09
2022-10-14T01:15:25.342Z,98454.44
2022-10-14T01:18:34.529Z,98470.75
2022-10-14T01:21:18.320Z,98467.09
2022-10-14T01:24:05.521Z,98473.13
2022-10-14T01:26:56.302Z,98473.47
2022-10-14T01:29:48.103Z,98466.72
2022-10-14T01:32:36.757Z,98468.78
2022-10-14T01:35:31.223Z,98461.94
2022-10-14T01:38:01.819Z,98469.50
2022-10-14T01:40:34.917Z,98453.38
2022-10-14T01:43:03.405Z,98458.50
2022-10-14T01:45:34.095Z,98454.19
2022-10-14T01:48:02.309Z,98452.91
2022-10-14T01:50:31.501Z,98454.53
2022-10-14T01:53:03.499Z,98445.28
2022-10-14T01:55:35.369Z,98449.34
2022-10-14T01:58:03.459Z,98442.19
2022-10-14T02:00:30.881Z,98447.59
2022-10-14T02:03:02.326Z,98448.03
2022-10-14T02:05:39.363Z,98436.16
2022-10-14T02:08:21.071Z,98441.13
2022-10-14T02:11:02.460Z,98449.19
2022-10-14T02:13:54.471Z,98454.19
2022-10-14T02:17:00.460Z,98442.81
2022-10-14T02:19:49.132Z,98437.47
2022-10-14T02:22:40.372Z,98439.84
2022-10-14T02:25:15.189Z,98432.63
2022-10-14T02:27:43.989Z,98438.75
2022-10-14T02:30:12.076Z,98435.06
2022-10-14T02:32:40.801Z,98442.94
2022-10-14T02:35:10.424Z,98442.28
2022-10-14T02:37:38.747Z,98437.25
2022-10-14T02:40:10.139Z,98434.50
2022-10-14T02:42:37.578Z,98439.22
2022-10-14T02:45:06.073Z,98432.97
2022-10-14T02:47:33.563Z,98437.25
2022-10-14T02:50:01.035Z,98434.03
2022-10-14T02:52:28.306Z,98437.06
2022-10-14T02:54:55.629Z,98438.03
2022-10-14T02:57:23.251Z,98434.94
2022-10-14T02:59:50.576Z,98431.19
2022-10-14T03:02:17.924Z,98426.72
2022-10-14T03:04:46.884Z,98430.09
2022-10-14T03:07:14.215Z,98427.56
2022-10-14T03:09:46.145Z,98423.13
2022-10-14T03:12:13.817Z,98439.00
2022-10-14T03:14:41.573Z,98427.56
2022-10-14T03:17:12.085Z,98424.91
2022-10-14T03:19:40.424Z,98431.91
2022-10-14T03:22:08.631Z,98423.13
2022-10-14T03:24:38.005Z,98426.72
2022-10-14T03:27:28.424Z,98416.97
2022-10-14T03:30:01.245Z,98418.78
2022-10-14T03:32:28.653Z,98418.06
2022-10-14T03:35:14.480Z,98408.44
2022-10-14T03:37:44.975Z,98410.25
2022-10-14T03:40:13.884Z,98411.09
2022-10-14T03:42:42.258Z,98409.41
2022-10-14T03:45:10.125Z,98401.44
2022-10-14T03:47:39.436Z,98397.84
2022-10-14T03:50:07.428Z,98398.78
2022-10-14T03:52:43.630Z,98390.84
2022-10-14T03:55:21.482Z,98377.47
2022-10-14T03:57:51.675Z,98367.34
2022-10-14T04:00:19.473Z,98369.06
2022-10-14T04:02:54.023Z,98370.31
2022-10-14T04:05:50.566Z,98361.38
2022-10-14T04:08:22.526Z,98361.75
2022-10-14T04:10:56.594Z,98347.69
2022-10-14T04:13:25.864Z,98350.59
2022-10-14T04:15:53.277Z,98348.22
2022-10-14T04:18:35.253Z,98340.38
2022-10-14T04:21:07.041Z,98334.97
2022-10-14T04:23:35.228Z,98335.38
2022-10-14T04:26:10.845Z,98331.72
2022-10-14T04:28:39.104Z,98328.38
2022-10-14T04:31:13.276Z,98333.28
2022-10-14T04:33:50.733Z,98329.28
2022-10-14T04:36:24.752Z,98325.53
2022-10-14T04:38:52.189Z,98330.38
2022-10-14T04:41:19.564Z,98325.47
2022-10-14T04:43:49.292Z,98321.47
2022-10-14T04:46:23.837Z,98327.50
2022-10-14T04:48:51.775Z,98320.50
2022-10-14T04:51:21.226Z,98324.22
2022-10-14T04:54:00.336Z,98316.03
2022-10-14T04:56:41.860Z,98319.97
2022-10-14T04:59:11.959Z,98316.06
2022-10-14T05:01:52.538Z,98312.56
2022-10-14T05:04:20.990Z,98314.56
2022-10-14T05:06:50.706Z,98314.13
2022-10-14T05:09:19.441Z,98303.78
2022-10-14T05:11:47.013Z,98304.78
2022-10-14T05:14:18.222Z,98303.41
2022-10-14T05:16:49.211Z,98296.19
2022-10-14T05:19:23.939Z,98286.41
2022-10-14T05:21:52.876Z,98284.44
2022-10-14T05:24:32.832Z,98287.47
2022-10-14T05:27:00.383Z,98281.66
2022-10-14T05:29:29.828Z,98285.25
2022-10-14T05:31:57.419Z,98284.97
2022-10-14T05:34:35.830Z,98272.84
2022-10-14T05:37:05.013Z,98273.25
2022-10-14T05:39:39.587Z,98261.09
2022-10-14T05:42:07.240Z,98271.03
2022-10-14T05:44:35.667Z,98264.91
2022-10-14T05:47:04.412Z,98265.72
2022-10-14T05:49:32.019Z,98267.59
2022-10-14T05:52:02.833Z,98266.53
2022-10-14T05:54:31.505Z,98276.69
2022-10-14T05:56:59.319Z,98275.66
2022-10-14T05:59:29.597Z,98276.94
2022-10-14T06:01:58.346Z,98267.72
2022-10-14T06:04:26.185Z,98273.81
2022-10-14T06:06:53.527Z,98267.75
2022-10-14T06:09:21.205Z,98267.88
2022-10-14T06:11:48.647Z,98265.78
2022-10-14T06:14:15.975Z,98262.72
2022-10-14T06:16:43.454Z,98268.31
2022-10-14T06:19:10.917Z,98260.63
2022-10-14T06:21:38.489Z,98257.06
2022-10-14T06:24:06.197Z,98262.88
2022-10-14T06:26:33.593Z,98266.13
2022-10-14T06:29:01.007Z,98259.72
2022-10-14T06:31:32.186Z,98259.75
2022-10-14T06:34:00.659Z,98257.41
2022-10-14T06:36:28.041Z,98259.84
2022-10-14T06:38:55.454Z,98268.38
2022-10-14T06:41:22.843Z,98266.84
2022-10-14T06:43:50.291Z,98259.91
2022-10-14T06:46:17.600Z,98261.69
2022-10-14T06:48:50.053Z,98260.59
2022-10-14T06:51:18.038Z,98254.59
2022-10-14T06:53:45.368Z,98251.78
2022-10-14T06:56:12.787Z,98258.09
2022-10-14T06:58:40.074Z,98260.31
2022-10-14T07:01:08.723Z,98250.13
2022-10-14T07:03:37.534Z,98259.63
2022-10-14T07:06:06.366Z,98258.78
2022-10-14T07:08:33.838Z,98261.44
2022-10-14T07:11:01.206Z,98248.56
2022-10-14T07:13:28.574Z,98247.97
2022-10-14T07:15:55.891Z,98254.84
2022-10-14T07:18:23.209Z,98253.47
2022-10-14T07:20:50.540Z,98252.47
2022-10-14T07:23:18.281Z,98251.06
2022-10-14T07:25:45.628Z,98257.09
2022-10-14T07:28:12.994Z,98250.94
2022-10-14T07:30:40.289Z,98246.63
2022-10-14T07:33:07.641Z,98252.34
2022-10-14T07:35:35.491Z,98253.72
2022-10-14T07:38:02.953Z,98250.78
2022-10-14T07:40:30.294Z,98254.41
2022-10-14T07:42:57.868Z,98258.75
2022-10-14T07:45:25.554Z,98267.66
2022-10-14T07:47:52.893Z,98279.38
2022-10-14T07:50:20.551Z,98278.41
2022-10-14T07:52:47.946Z,98294.63
2022-10-14T07:55:15.277Z,98297.13
2022-10-14T07:57:42.589Z,98304.59
2022-10-14T08:00:10.521Z,98306.09
2022-10-14T08:02:40.616Z,98315.38
2022-10-14T08:05:33.043Z,98309.06
2022-10-14T08:07:55.419Z,98305.75
2022-10-14T08:10:22.813Z,98305.91
2022-10-14T08:12:51.101Z,98312.34
2022-10-14T08:15:18.501Z,98314.78
2022-10-14T08:17:45.962Z,98314.31
2022-10-14T08:20:13.351Z,98319.34
2022-10-14T08:22:40.977Z,98320.34
2022-10-14T08:25:08.578Z,98325.28
2022-10-14T08:27:35.955Z,98324.16
2022-10-14T08:30:07.322Z,98324.44
2022-10-14T08:32:38.674Z,98319.59
2022-10-14T08:35:06.478Z,98323.97
2022-10-14T08:37:33.791Z,98318.91
2022-10-14T08:40:01.111Z,98312.44
2022-10-14T08:42:31.400Z,98314.09
2022-10-14T08:45:11.101Z,98309.13
2022-10-14T08:47:41.600Z,98305.09
2022-10-14T08:50:30.859Z,98303.78
2022-10-14T08:53:07.535Z,98303.69
2022-10-14T08:55:41.087Z,98296.47
2022-10-14T08:58:13.290Z,98305.16
2022-10-14T09:00:46.922Z,98301.34
2022-10-14T09:03:23.459Z,98294.69
2022-10-14T09:06:00.504Z,98294.34
2022-10-14T09:08:34.635Z,98300.94
2022-10-14T09:11:02.016Z,98294.69
2022-10-14T09:13:39.183Z,98302.81
2022-10-14T09:16:20.691Z,98293.97
2022-10-14T09:19:15.542Z,98303.78
2022-10-14T09:21:54.599Z,98296.66
2022-10-14T09:24:26.107Z,98297.88
2022-10-14T09:27:15.272Z,98292.84
2022-10-14T09:30:00.699Z,98291.91
2022-10-14T09:32:29.020Z,98292.84
2022-10-14T09:34:56.960Z,98292.84
2022-10-14T09:37:31.821Z,98287.38
2022-10-14T09:40:11.152Z,98281.47
2022-10-14T09:43:00.530Z,98289.19
2022-10-14T09:45:29.743Z,98285.97
2022-10-14T09:48:07.712Z,98280.81
2022-10-14T09:50:43.851Z,98281.13
2022-10-14T09:53:17.940Z,98283.47
2022-10-14T09:56:01.336Z,98277.38
2022-10-14T09:58:53.498Z,98274.91
2022-10-14T10:01:23.064Z,98275.47
2022-10-14T10:03:51.700Z,98276.50
2022-10-14T10:06:28.232Z,98267.56
2022-10-14T10:08:55.706Z,98265.88
2022-10-14T10:11:39.685Z,98267.38
2022-10-14T10:14:27.479Z,98259.34
2022-10-14T10:17:10.019Z,98264.00
2022-10-14T10:19:40.333Z,98259.81
2022-10-14T10:25:12.811Z,98250.19
2022-10-14T10:27:42.264Z,98245.44
2022-10-14T10:30:20.283Z,98240.53
2022-10-14T10:33:07.319Z,98231.94
2022-10-14T10:35:56.344Z,98235.41
2022-10-14T10:38:35.239Z,98232.13
2022-10-14T10:41:22.717Z,98223.69
2022-10-14T10:44:19.096Z,98216.56
2022-10-14T10:47:07.582Z,98208.91
2022-10-14T10:49:44.046Z,98210.88
2022-10-14T10:52:17.483Z,98200.19
2022-10-14T10:55:05.414Z,98206.19
2022-10-14T10:58:06.144Z,98197.03
2022-10-14T11:01:09.958Z,98202.72
2022-10-14T11:04:04.287Z,98185.38
2022-10-14T11:07:13.209Z,98193.44
2022-10-14T11:10:04.892Z,98193.13
2022-10-14T11:12:39.654Z,98198.56
2022-10-14T11:15:20.670Z,98183.19
2022-10-14T11:18:05.597Z,98189.19
2022-10-14T11:20:57.028Z,98177.03
2022-10-14T11:23:59.546Z,98174.63
2022-10-14T11:26:51.819Z,98178.22
2022-10-14T11:29:46.910Z,98169.97
2022-10-14T11:32:21.745Z,98164.66
2022-10-14T11:35:17.055Z,98161.66
2022-10-14T11:37:47.283Z,98155.31
2022-10-14T11:40:28.952Z,98157.28
2022-10-14T11:43:39.407Z,98155.00
2022-10-14T11:46:11.201Z,98155.44
2022-10-14T11:48:45.869Z,98156.81
2022-10-14T11:51:34.913Z,98146.81
2022-10-14T11:54:03.544Z,98148.13
2022-10-14T11:56:41.608Z,98146.81
2022-10-14T11:59:43.617Z,98155.63
2022-10-14T12:02:20.753Z,98154.81
2022-10-14T12:05:16.664Z,98157.31
2022-10-14T12:08:16.095Z,98157.13
2022-10-14T12:10:50.689Z,98145.63
2022-10-14T12:13:20.708Z,98138.66
2022-10-14T12:15:52.146Z,98137.22
2022-10-14T12:18:19.704Z,98127.25
2022-10-14T12:20:58.257Z,98129.84
2022-10-14T12:23:39.123Z,98126.00
2022-10-14T12:26:21.533Z,98115.81
2022-10-14T12:28:49.725Z,98115.53
2022-10-14T12:31:22.376Z,98114.91
2022-10-14T12:34:11.544Z,98096.66
2022-10-14T12:36:40.398Z,98091.69
2022-10-14T12:39:19.735Z,98089.44
2022-10-14T12:41:58.311Z,98084.78
2022-10-14T12:44:41.209Z,98076.88
2022-10-14T12:47:29.420Z,98067.06
2022-10-14T12:49:58.852Z,98067.56
2022-10-14T12:52:38.287Z,98066.72
2022-10-14T12:55:15.291Z,98068.06
2022-10-14T12:57:42.773Z,98068.72
2022-10-14T13:00:22.659Z,98059.72
2022-10-14T13:03:04.047Z,98058.03
2022-10-14T13:05:41.419Z,98057.38
2022-10-14T13:08:21.167Z,98058.16
2022-10-14T13:11:00.276Z,98051.16
2022-10-14T13:13:42.380Z,98055.38
2022-10-14T13:16:25.202Z,98054.28
2022-10-14T13:18:59.637Z,98060.00
2022-10-14T13:21:35.360Z,98057.34
2022-10-14T13:24:05.919Z,98061.88
2022-10-14T13:27:05.658Z,98049.69
2022-10-14T13:29:40.601Z,98051.25
2022-10-14T13:32:49.915Z,98062.97
2022-10-14T13:35:37.711Z,98054.66
2022-10-14T13:38:15.417Z,98056.38
2022-10-14T13:40:55.450Z,98057.31
2022-10-14T13:43:42.833Z,98056.50
2022-10-14T13:46:15.036Z,98060.41
2022-10-14T13:48:52.138Z,98070.63
2022-10-14T13:51:48.524Z,98057.31
2022-10-14T13:54:17.181Z,98058.34
2022-10-14T13:56:44.941Z,98058.66
2022-10-14T13:59:43.730Z,98055.69
2022-10-14T14:02:18.242Z,98053.22
2022-10-14T14:04:51.660Z,98049.72
2022-10-14T14:08:08.528Z,98044.53
2022-10-14T14:10:11.017Z,98046.72
2022-10-14T14:12:42.489Z,98037.06
2022-10-14T14:15:29.041Z,98027.19
2022-10-14T14:17:56.063Z,98029.19
2022-10-14T14:20:28.711Z,98026.84
2022-10-14T14:22:58.646Z,98014.00
2022-10-14T14:25:35.062Z,97999.81
2022-10-14T14:28:14.930Z,98001.13
2022-10-14T14:30:54.940Z,97999.31
2022-10-14T14:33:48.819Z,97999.28
2022-10-14T14:36:27.825Z,98000.25
2022-10-14T14:39:06.098Z,98003.72
2022-10-14T14:41:33.543Z,98012.72
2022-10-14T14:44:24.770Z,98001.06
2022-10-14T14:46:57.758Z,98006.72
2022-10-14T14:49:33.241Z,98006.38
2022-10-14T14:52:02.672Z,98010.22
2022-10-14T14:54:29.791Z,98003.72
2022-10-14T14:57:07.369Z,98008.41
2022-10-14T14:59:38.130Z,98011.91
2022-10-14T15:02:18.149Z,98013.41
2022-10-14T15:05:02.567Z,98016.44
2022-10-14T15:07:29.952Z,98011.56
2022-10-14T15:10:03.808Z,98016.50
2022-10-14T15:12:54.928Z,98012.19
2022-10-14T15:15:33.799Z,98016.88
2022-10-14T15:18:20.860Z,98011.19
2022-10-14T15:20:49.477Z,98006.00
2022-10-14T15:23:50.612Z,98009.53
2022-10-14T15:26:35.538Z,98004.19
2022-10-14T15:32:14.668Z,98004.22
2022-10-14T15:34:41.932Z,98012.72
2022-10-14T15:37:13.766Z,98007.03
2022-10-14T15:39:40.702Z,97999.53
2022-10-14T15:42:13.569Z,97988.88
2022-10-14T15:44:40.456Z,97990.88
2022-10-14T15:47:21.176Z,97997.34
2022-10-14T15:49:48.457Z,97990.16
2022-10-14T15:52:17.777Z,97992.69
2022-10-14T15:54:47.050Z,97999.19
2022-10-14T15:57:16.709Z,97993.88
2022-10-14T15:59:47.845Z,97994.38
2022-10-14T16:02:23.317Z,98000.72
2022-10-14T16:05:18.302Z,97999.84
2022-10-14T16:07:39.405Z,97993.19
2022-10-14T16:10:08.812Z,97994.88
2022-10-14T16:12:35.821Z,97992.38
2022-10-14T16:15:03.583Z,97992.22
2022-10-14T16:17:31.861Z,97988.19
2022-10-14T16:19:58.864Z,97989.16
2022-10-14T16:22:25.893Z,97988.66
2022-10-14T16:24:52.853Z,97990.50
2022-10-14T16:27:19.937Z,97996.47
2022-10-14T16:29:47.004Z,97990.47
2022-10-14T16:32:14.222Z,97991.50
2022-10-14T16:34:41.170Z,97993.28
2022-10-14T16:37:09.195Z,97989.59
2022-10-14T16:39:38.468Z,97989.22
2022-10-14T16:42:05.945Z,97992.69
2022-10-14T16:44:33.155Z,97995.16
2022-10-14T16:47:19.130Z,97992.16
2022-10-14T16:49:51.855Z,97980.31
2022-10-14T16:52:19.514Z,97980.00
2022-10-14T16:54:47.048Z,97981.97
2022-10-14T16:57:14.288Z,97985.63
2022-10-14T16:59:41.369Z,97978.28
2022-10-14T17:02:10.963Z,97984.28
2022-10-14T17:04:39.189Z,97984.94
2022-10-14T17:07:09.162Z,97989.13
2022-10-14T17:09:36.925Z,97994.13
2022-10-14T17:12:08.129Z,98001.75
2022-10-14T17:14:38.241Z,98005.72
2022-10-14T17:17:05.345Z,98001.88
2022-10-14T17:19:32.499Z,98008.34
2022-10-14T17:22:01.968Z,97999.88
2022-10-14T17:24:29.322Z,98011.81
2022-10-14T17:26:57.502Z,98016.44
2022-10-14T17:29:24.610Z,98005.75
2022-10-14T17:31:51.834Z,97998.69
2022-10-14T17:34:18.706Z,97999.84
2022-10-14T17:36:45.667Z,97998.94
2022-10-14T17:39:18.898Z,97994.31
2022-10-14T17:41:51.945Z,98000.56
2022-10-14T17:44:19.476Z,97993.03
2022-10-14T17:46:46.483Z,97982.34
2022-10-14T17:49:15.043Z,97978.03
2022-10-14T17:51:42.205Z,97976.34
2022-10-14T17:54:11.736Z,97971.13
2022-10-14T17:56:39.936Z,97975.78
2022-10-14T17:59:13.912Z,97983.28
2022-10-14T18:02:01.519Z,97983.75
2022-10-14T18:04:27.873Z,97986.22
2022-10-14T18:06:54.781Z,97981.34
2022-10-14T18:09:21.744Z,97979.53
2022-10-14T18:14:38.807Z,97965.50
2022-10-14T18:17:06.378Z,97963.88
2022-10-14T18:19:33.909Z,97949.75
2022-10-14T18:22:01.832Z,97948.94
2022-10-14T18:24:28.890Z,97946.78
2022-10-14T18:26:55.962Z,97944.53
2022-10-14T18:29:23.952Z,97930.00
2022-10-14T18:34:19.047Z,97936.16
2022-10-14T18:36:47.780Z,97935.50
2022-10-14T18:39:15.456Z,97935.31
2022-10-14T18:41:43.886Z,97933.34
2022-10-14T18:44:10.844Z,97927.56
2022-10-14T18:46:39.694Z,97933.09
2022-10-14T18:49:10.452Z,97925.94
2022-10-14T18:51:39.269Z,97929.22
2022-10-14T18:54:10.201Z,97932.66
2022-10-14T18:56:40.815Z,97941.97
2022-10-14T18:59:23.069Z,97934.44
2022-10-14T19:01:55.209Z,97936.25
2022-10-14T19:04:25.137Z,97933.41
2022-10-14T19:06:52.557Z,97924.19
2022-10-14T19:09:22.217Z,97929.78
2022-10-14T19:11:53.457Z,97931.41
2022-10-14T19:14:22.187Z,97925.34
2022-10-14T19:16:49.927Z,97924.13
2022-10-14T19:19:19.694Z,97927.72
2022-10-14T19:21:50.249Z,97918.06
2022-10-14T19:24:17.879Z,97915.25
2022-10-14T19:26:46.277Z,97905.22
2022-10-14T19:29:15.161Z,97907.50
2022-10-14T19:31:43.974Z,97906.38
2022-10-14T19:34:14.390Z,97899.03
2022-10-14T19:36:42.135Z,97898.31
2022-10-14T19:39:11.697Z,97892.31
2022-10-14T19:41:43.128Z,97893.13
2022-10-14T19:44:11.379Z,97888.00
2022-10-14T19:46:38.965Z,97884.50
2022-10-14T19:49:06.521Z,97878.34
2022-10-14T19:51:34.974Z,97872.22
2022-10-14T19:54:02.992Z,97872.53
2022-10-14T19:56:30.820Z,97869.69
2022-10-14T19:58:59.245Z,97854.91
2022-10-14T20:01:28.701Z,97851.88
2022-10-14T20:03:56.695Z,97847.56
2022-10-14T20:06:24.776Z,97838.91
2022-10-14T20:08:52.171Z,97836.25
2022-10-14T20:11:23.252Z,97838.78
2022-10-14T20:13:51.059Z,97832.31
2022-10-14T20:16:18.437Z,97832.59
2022-10-14T20:18:45.784Z,97836.41
2022-10-14T20:21:15.026Z,97838.91
2022-10-14T20:23:42.545Z,97829.34
2022-10-14T20:26:13.485Z,97821.25
2022-10-14T20:28:41.367Z,97814.38
2022-10-14T20:31:10.711Z,97807.78
2022-10-14T20:33:38.120Z,97801.34
2022-10-14T20:36:18.342Z,97797.16
2022-10-14T20:38:47.138Z,97790.19
2022-10-14T20:41:17.168Z,97795.59
2022-10-14T20:43:44.927Z,97789.38
2022-10-14T20:46:12.547Z,97792.25
2022-10-14T20:48:40.088Z,97788.91
2022-10-14T20:51:09.109Z,97796.75
2022-10-14T20:53:36.593Z,97789.25
2022-10-14T20:56:06.390Z,97799.16
2022-10-14T20:58:33.871Z,97792.34
2022-10-14T21:01:15.586Z,97793.19
2022-10-14T21:03:44.978Z,97792.88
2022-10-14T21:06:15.151Z,97790.06
2022-10-14T21:08:42.933Z,97787.19
2022-10-14T21:11:15.146Z,97771.44
2022-10-14T21:13:48.232Z,97770.97
2022-10-14T21:16:19.729Z,97765.16
2022-10-14T21:18:55.215Z,97768.47
2022-10-14T21:21:27.742Z,97774.09
2022-10-14T21:23:55.828Z,97767.78
2022-10-14T21:26:23.331Z,97763.66
2022-10-14T21:28:50.821Z,97765.44
2022-10-14T21:31:19.952Z,97756.78
2022-10-14T21:33:48.310Z,97766.56
2022-10-14T21:36:16.812Z,97759.13
2022-10-14T21:38:43.944Z,97759.13
2022-10-14T21:41:11.827Z,97755.78
2022-10-14T21:43:39.336Z,97753.00
2022-10-14T21:46:13.261Z,97749.88
2022-10-14T21:48:41.386Z,97745.06
2022-10-14T21:51:18.912Z,97742.59
2022-10-14T21:53:46.596Z,97735.69
2022-10-14T21:56:15.714Z,97734.53
2022-10-14T21:58:43.109Z,97727.72
2022-10-14T22:01:17.067Z,97722.69
2022-10-14T22:03:44.789Z,97724.06
2022-10-14T22:06:15.063Z,97717.91
2022-10-14T22:08:48.067Z,97711.09
2022-10-14T22:11:19.773Z,97715.94
2022-10-14T22:13:47.040Z,97715.25
2022-10-14T22:16:16.970Z,97713.13
2022-10-14T22:18:46.881Z,97711.97
2022-10-14T22:21:16.165Z,97704.19
2022-10-14T22:23:43.676Z,97703.50
2022-10-14T22:26:14.625Z,97692.88
2022-10-14T22:28:42.019Z,97692.06
2022-10-14T22:31:17.564Z,97688.56
2022-10-14T22:33:45.298Z,97688.25
2022-10-14T22:36:19.469Z,97688.25
2022-10-14T22:38:51.005Z,97684.44
2022-10-14T22:41:18.894Z,97686.28
2022-10-14T22:43:52.075Z,97680.97
2022-10-14T22:46:22.449Z,97689.56
2022-10-14T22:48:50.976Z,97678.00
2022-10-14T22:51:19.269Z,97681.31
2022-10-14T22:53:47.059Z,97674.41
2022-10-14T22:56:23.016Z,97670.06
2022-10-14T22:59:03.123Z,97663.09
2022-10-14T23:01:30.738Z,97669.09
2022-10-14T23:03:59.078Z,97675.94
2022-10-14T23:06:26.631Z,97655.88
2022-10-14T23:08:54.470Z,97661.31
2022-10-14T23:11:24.388Z,97652.06
2022-10-14T23:13:52.123Z,97649.06
2022-10-14T23:16:22.675Z,97649.94
2022-10-14T23:18:49.868Z,97646.25
2022-10-14T23:21:30.204Z,97644.44
2022-10-14T23:24:00.347Z,97648.59
2022-10-14T23:26:34.334Z,97646.94
2022-10-14T23:29:05.827Z,97637.00
2022-10-14T23:31:35.371Z,97637.34
2022-10-14T23:34:06.798Z,97637.84
2022-10-14T23:36:34.105Z,97628.22
2022-10-14T23:39:01.162Z,97636.00
2022-10-14T23:41:28.160Z,97633.88
2022-10-14T23:43:56.847Z,97628.72
2022-10-14T23:46:24.604Z,97632.03
2022-10-14T23:49:01.213Z,97629.06
2022-10-14T23:51:35.593Z,97628.91
2022-10-14T23:54:02.561Z,97632.72
2022-10-14T23:56:29.513Z,97626.94
2022-10-14T23:58:56.430Z,97627.13
